KFXE

Fort Lauderdale Executive Airport

Fort Lauderdale, Florida, USA
KFXE 230520Z 2306/2406 11020KT P6SM SCT035 BKN050
Issued Valid From Valid To
Jan-23 @ 05:20 UTC
(2 hours ago)
Jan-23 @ 06:00 UTC
(an hour ago)
Jan-24 @ 06:00 UTC
(in 23 hours)
Jan-23 @ 06:00 to Jan-24 @ 06:00
KFXE 230520Z 2306/2406 11020KT P6SM SCT035 BKN050
Wind Visibility Clouds
110° at 20 knots Greater than 6 miles
  • Scattered at 3,500' AGL
  • Broken at 5,000' AGL
KFXE 230520Z 2306/2406 11020KT P6SM SCT035 BKN050
Issued Jan-23 @ 05:20 UTC
(2 hours ago)
Valid From Jan-23 @ 06:00 UTC
(an hour ago)
Valid To Jan-24 @ 06:00 UTC
(in 23 hours)
Jan-23 @ 06:00 - Jan-24 @ 06:00
Wind Visibility
110° at 20 knots Greater than 6 miles
Clouds
  • Scattered at 3,500' AGL
  • Broken at 5,000' AGL